Time;durP1;ratioP1;P1;durP2;ratioP2;P2;SDS_P1;SDS_P2;PMS_P1;PMS_P2;Temp;Humidity;BMP_temperature;BMP_pressure;BME280_temperature;BME280_humidity;BME280_pressure;Samples;Min_cycle;Max_cycle;Signal;HPM_P1;HPM_P2
2020/12/23 00:01:12;;;;;;;3.95;1.75;;;5.00;99.90;;;;;;5048365;28;20017;-55
2020/12/23 00:03:38;;;;;;;5.47;2.10;;;5.00;99.90;;;;;;5047671;28;20086;-55
2020/12/23 00:06:03;;;;;;;7.35;1.85;;;4.90;99.90;;;;;;5047788;28;20025;-54
2020/12/23 00:08:29;;;;;;;4.57;1.65;;;4.90;99.90;;;;;;5047559;28;20017;-55
2020/12/23 00:10:57;;;;;;;5.55;2.40;;;4.90;99.90;;;;;;5048390;28;20021;-56
2020/12/23 00:13:22;;;;;;;3.50;1.92;;;4.80;99.90;;;;;;5046905;28;20028;-56
2020/12/23 00:15:48;;;;;;;10.80;2.42;;;4.80;99.90;;;;;;5048357;28;20029;-54
2020/12/23 00:18:13;;;;;;;5.45;2.42;;;4.80;99.90;;;;;;5047804;28;20029;-55
2020/12/23 00:20:39;;;;;;;3.15;1.73;;;4.80;99.90;;;;;;5044886;28;20029;-56
2020/12/23 00:23:05;;;;;;;6.45;2.35;;;4.70;99.90;;;;;;5042178;28;20378;-56
2020/12/23 00:25:30;;;;;;;3.30;1.85;;;4.60;99.90;;;;;;5043046;28;20049;-54
2020/12/23 00:27:56;;;;;;;2.97;1.40;;;4.60;99.90;;;;;;5039571;28;20025;-56
2020/12/23 00:30:21;;;;;;;3.85;1.95;;;4.50;99.90;;;;;;5039334;28;20025;-57
2020/12/23 00:32:47;;;;;;;4.22;2.10;;;4.40;99.90;;;;;;5037302;28;20045;-56
2020/12/23 00:35:13;;;;;;;4.82;2.30;;;4.40;99.90;;;;;;5029019;28;20139;-55
2020/12/23 00:37:38;;;;;;;4.03;1.85;;;4.30;99.90;;;;;;5048325;28;20059;-54
2020/12/23 00:40:05;;;;;;;7.50;2.15;;;4.30;99.90;;;;;;5048352;28;20166;-55
2020/12/23 00:42:30;;;;;;;6.38;2.42;;;4.20;99.90;;;;;;5048002;28;20036;-54
2020/12/23 00:44:58;;;;;;;8.40;2.33;;;4.20;99.90;;;;;;5047923;28;20031;-57
2020/12/23 00:47:24;;;;;;;5.07;2.28;;;4.10;99.90;;;;;;5047860;28;20597;-57
2020/12/23 00:49:49;;;;;;;6.57;2.25;;;4.10;99.90;;;;;;5048180;28;20407;-56
2020/12/23 00:52:15;;;;;;;1.58;1.42;;;4.10;99.90;;;;;;5048024;28;20017;-55
2020/12/23 00:54:41;;;;;;;5.13;1.80;;;4.00;99.90;;;;;;5047552;28;20063;-57
2020/12/23 00:57:06;;;;;;;8.13;2.67;;;4.00;99.90;;;;;;5039001;28;20028;-57
2020/12/23 00:59:32;;;;;;;4.93;2.65;;;3.90;99.90;;;;;;5034781;28;20067;-55
2020/12/23 01:01:59;;;;;;;4.18;2.22;;;3.80;99.90;;;;;;5047845;28;20033;-57
2020/12/23 01:04:26;;;;;;;5.80;2.47;;;3.70;99.90;;;;;;5044897;28;20068;-57
2020/12/23 01:06:51;;;;;;;8.10;2.72;;;3.70;99.90;;;;;;5040004;28;20035;-56
2020/12/23 01:09:17;;;;;;;8.85;3.22;;;3.70;99.90;;;;;;5047676;28;20021;-55
2020/12/23 01:11:42;;;;;;;3.60;2.53;;;3.60;99.90;;;;;;5047566;28;20494;-58
2020/12/23 01:14:08;;;;;;;4.32;2.88;;;3.50;99.90;;;;;;5047443;28;20025;-57
2020/12/23 01:16:34;;;;;;;4.55;2.65;;;3.50;99.90;;;;;;5051026;28;20020;-56
2020/12/23 01:18:59;;;;;;;6.80;2.88;;;3.50;99.90;;;;;;5051166;28;20460;-57
2020/12/23 01:21:25;;;;;;;5.82;2.72;;;3.40;99.90;;;;;;5049280;28;20597;-57
2020/12/23 01:23:51;;;;;;;6.40;3.45;;;3.40;99.90;;;;;;5051765;28;20032;-55
2020/12/23 01:26:18;;;;;;;7.57;2.60;;;3.30;99.90;;;;;;5050449;28;20104;-52
2020/12/23 01:28:45;;;;;;;6.20;3.05;;;3.30;99.90;;;;;;5050136;28;20223;-56
2020/12/23 01:31:11;;;;;;;7.38;2.78;;;3.30;99.90;;;;;;5051634;28;20035;-56
2020/12/23 01:33:37;;;;;;;5.95;3.08;;;3.20;99.90;;;;;;5038360;28;20030;-56
2020/12/23 01:36:02;;;;;;;4.32;2.72;;;3.20;99.90;;;;;;5051071;28;20029;-57
2020/12/23 01:38:28;;;;;;;4.97;2.65;;;3.10;99.90;;;;;;5029872;28;20064;-55
2020/12/23 01:41:04;;;;;;;4.70;3.35;;;3.10;99.90;;;;;;5032387;28;20029;-56
2020/12/23 01:43:30;;;;;;;7.50;2.88;;;3.10;99.90;;;;;;5051096;28;20017;-55
2020/12/23 01:45:56;;;;;;;4.53;2.70;;;3.10;99.90;;;;;;5050609;28;20026;-57
2020/12/23 01:48:29;;;;;;;9.95;3.40;;;3.10;99.90;;;;;;5050796;28;20094;-56
2020/12/23 01:50:58;;;;;;;8.35;3.15;;;3.00;99.90;;;;;;5050331;28;20104;-56
2020/12/23 01:53:26;;;;;;;4.78;2.90;;;3.00;99.90;;;;;;5047345;28;20083;-56
2020/12/23 01:55:53;;;;;;;8.27;3.08;;;2.90;99.90;;;;;;5047000;28;20491;-56
2020/12/23 01:58:19;;;;;;;11.02;3.65;;;2.90;99.90;;;;;;5046645;28;20082;-57
2020/12/23 02:00:44;;;;;;;5.38;3.08;;;2.90;99.90;;;;;;5048002;28;20726;-53
2020/12/23 02:03:11;;;;;;;9.23;3.53;;;2.80;99.90;;;;;;5047440;28;20037;-58
2020/12/23 02:05:38;;;;;;;4.72;2.65;;;2.80;99.90;;;;;;5043204;28;20573;-56
2020/12/23 02:08:04;;;;;;;7.35;3.15;;;2.70;99.90;;;;;;5049906;28;20017;-57
2020/12/23 02:10:31;;;;;;;6.43;2.17;;;2.70;99.90;;;;;;5040455;28;20484;-54
2020/12/23 02:12:58;;;;;;;5.90;2.70;;;2.60;99.90;;;;;;5046743;28;20632;-56
2020/12/23 02:15:23;;;;;;;5.50;2.42;;;2.60;99.90;;;;;;5050131;28;20391;-57
2020/12/23 02:17:49;;;;;;;6.47;2.88;;;2.60;99.90;;;;;;5049744;28;20029;-56
2020/12/23 02:20:16;;;;;;;4.32;2.60;;;2.50;99.90;;;;;;5074936;22;20573;-78
2020/12/23 02:22:43;;;;;;;7.70;2.75;;;2.50;99.90;;;;;;5044677;28;20547;-79
2020/12/23 02:25:09;;;;;;;9.90;3.55;;;2.50;99.90;;;;;;5032373;28;20017;-78
2020/12/23 02:27:35;;;;;;;4.18;2.75;;;2.50;99.90;;;;;;5021544;28;20416;-77
2020/12/23 02:30:01;;;;;;;9.10;3.45;;;2.40;99.90;;;;;;5030594;28;20040;-78
2020/12/23 02:32:27;;;;;;;5.75;3.38;;;2.40;99.90;;;;;;5032725;28;20028;-78
2020/12/23 02:34:53;;;;;;;4.82;2.67;;;2.40;99.90;;;;;;5032758;28;20036;-79
2020/12/23 02:37:19;;;;;;;10.23;2.83;;;2.40;99.90;;;;;;5051355;28;20017;-78
2020/12/23 02:39:48;;;;;;;6.72;3.30;;;2.30;99.90;;;;;;5033207;28;20021;-79
2020/12/23 02:42:13;;;;;;;7.38;3.08;;;2.30;99.90;;;;;;5056909;28;20091;-78
2020/12/23 02:44:39;;;;;;;6.80;3.28;;;2.30;99.90;;;;;;5042497;28;20500;-78
2020/12/23 02:47:10;;;;;;;4.88;3.38;;;2.20;99.90;;;;;;5033450;28;20112;-78
2020/12/23 02:49:36;;;;;;;8.50;2.90;;;2.20;99.90;;;;;;5046387;28;20021;-78
2020/12/23 02:52:02;;;;;;;8.32;3.22;;;2.20;99.90;;;;;;5034238;28;20032;-78
2020/12/23 02:54:27;;;;;;;8.27;3.55;;;2.20;99.90;;;;;;5026741;28;20024;-78
2020/12/23 02:56:53;;;;;;;9.77;3.92;;;2.20;99.90;;;;;;5033576;28;20028;-79
2020/12/23 02:59:19;;;;;;;9.70;3.15;;;2.10;99.90;;;;;;5040922;28;20100;-80
2020/12/23 03:01:45;;;;;;;10.43;3.75;;;2.10;99.90;;;;;;5029343;28;20529;-79
2020/12/23 03:04:10;;;;;;;6.53;3.70;;;2.00;99.90;;;;;;5025714;28;20018;-78
2020/12/23 03:06:36;;;;;;;7.03;3.63;;;2.00;99.90;;;;;;5065703;28;20047;-79
2020/12/23 03:09:08;;;;;;;9.82;3.13;;;2.00;99.90;;;;;;5049267;28;20021;-78
2020/12/23 03:14:03;;;;;;;12.55;4.30;;;2.00;99.90;;;;;;5046550;28;20060;-61
2020/12/23 03:16:29;;;;;;;4.97;3.20;;;1.90;99.90;;;;;;5046049;28;20131;-61
2020/12/23 03:18:55;;;;;;;10.90;3.72;;;1.90;99.90;;;;;;5047493;28;20115;-62
2020/12/23 03:21:21;;;;;;;4.75;3.15;;;1.90;99.90;;;;;;5015544;28;20540;-65
2020/12/23 03:23:46;;;;;;;11.70;4.18;;;1.90;99.90;;;;;;5048307;28;20024;-64
2020/12/23 03:26:12;;;;;;;11.63;4.00;;;1.90;99.90;;;;;;5047709;28;20036;-61
2020/12/23 03:28:38;;;;;;;6.95;4.25;;;1.80;99.90;;;;;;5047986;28;20087;-59
2020/12/23 03:31:04;;;;;;;6.18;3.50;;;1.80;99.90;;;;;;5029577;28;20013;-62
2020/12/23 03:33:30;;;;;;;4.68;3.05;;;1.80;99.90;;;;;;5047815;28;20021;-61
2020/12/23 03:35:57;;;;;;;7.72;3.58;;;1.70;99.90;;;;;;5047495;28;20503;-63
2020/12/23 03:38:23;;;;;;;5.25;2.50;;;1.70;99.90;;;;;;5046844;28;20086;-63
2020/12/23 03:40:49;;;;;;;8.07;3.40;;;1.70;99.90;;;;;;5047526;28;20025;-65
2020/12/23 03:43:15;;;;;;;6.30;3.30;;;1.70;99.90;;;;;;5047428;28;20021;-65
2020/12/23 03:45:41;;;;;;;4.45;2.72;;;1.70;99.90;;;;;;5012497;28;20083;-61
2020/12/23 03:48:06;;;;;;;12.05;2.95;;;1.70;99.90;;;;;;5047257;28;20013;-62
2020/12/23 03:50:32;;;;;;;7.50;2.60;;;1.60;99.90;;;;;;5047409;28;20047;-59
2020/12/23 03:52:58;;;;;;;8.68;3.53;;;1.60;99.90;;;;;;5047559;28;20602;-61
2020/12/23 03:55:24;;;;;;;4.43;2.75;;;1.60;99.90;;;;;;5047002;28;20036;-60
2020/12/23 03:57:50;;;;;;;5.10;2.72;;;1.60;99.90;;;;;;5047626;28;20483;-62
2020/12/23 04:00:15;;;;;;;5.82;3.03;;;1.50;99.90;;;;;;5046876;28;20033;-62
2020/12/23 04:02:41;;;;;;;5.38;2.80;;;1.50;99.90;;;;;;5046442;28;20024;-62
2020/12/23 04:05:07;;;;;;;5.18;3.33;;;1.50;99.90;;;;;;5047070;28;20578;-62
2020/12/23 04:07:33;;;;;;;8.65;3.33;;;1.40;99.90;;;;;;5035273;28;20453;-62
2020/12/23 04:09:59;;;;;;;6.03;3.08;;;1.40;99.90;;;;;;5047712;28;20013;-62
2020/12/23 04:12:24;;;;;;;5.55;2.85;;;1.40;99.90;;;;;;5047614;28;20036;-62
2020/12/23 04:14:50;;;;;;;6.43;2.80;;;1.40;99.90;;;;;;5047549;28;20029;-65
2020/12/23 04:17:16;;;;;;;8.23;3.35;;;1.40;99.90;;;;;;5047836;28;20066;-61
2020/12/23 04:19:41;;;;;;;7.43;3.65;;;1.40;99.90;;;;;;5047630;28;20108;-61
2020/12/23 04:22:08;;;;;;;5.25;3.47;;;1.40;99.90;;;;;;5047614;28;20035;-60
2020/12/23 04:24:33;;;;;;;5.30;3.33;;;1.40;99.90;;;;;;5047569;28;20404;-64
2020/12/23 04:26:59;;;;;;;3.47;3.00;;;1.50;99.90;;;;;;5047557;28;20075;-62
2020/12/23 04:29:24;;;;;;;4.88;3.30;;;1.50;99.90;;;;;;5047605;28;20083;-65
2020/12/23 04:31:50;;;;;;;5.45;2.90;;;1.50;99.90;;;;;;5047602;28;20039;-61
2020/12/23 04:34:15;;;;;;;6.47;3.17;;;1.50;99.90;;;;;;5047819;28;20025;-60
2020/12/23 04:36:41;;;;;;;19.08;5.07;;;1.50;99.90;;;;;;5047368;28;20025;-62
2020/12/23 04:39:07;;;;;;;8.80;3.35;;;1.50;99.90;;;;;;5046901;28;20052;-62
2020/12/23 04:41:36;;;;;;;7.22;4.03;;;1.60;99.90;;;;;;5029702;28;20048;-63
2020/12/23 04:44:03;;;;;;;7.88;4.38;;;1.60;99.90;;;;;;5047491;28;20025;-62
2020/12/23 04:46:33;;;;;;;6.22;4.43;;;1.60;99.90;;;;;;5046960;28;20059;-62
2020/12/23 04:49:00;;;;;;;8.05;4.47;;;1.60;99.90;;;;;;5047065;28;20467;-62
2020/12/23 04:51:31;;;;;;;9.68;4.30;;;1.70;99.90;;;;;;5051426;28;20032;-62
2020/12/23 04:53:58;;;;;;;12.40;4.50;;;1.70;99.90;;;;;;5031790;28;20067;-63
2020/12/23 04:56:28;;;;;;;14.43;4.93;;;1.70;99.90;;;;;;5033309;28;20027;-64
2020/12/23 04:58:58;;;;;;;6.55;4.55;;;1.80;99.90;;;;;;5031087;28;20032;-61
2020/12/23 05:01:24;;;;;;;5.60;4.38;;;1.80;99.90;;;;;;5051149;28;20028;-62
2020/12/23 05:03:53;;;;;;;10.13;5.32;;;1.80;99.90;;;;;;5050984;28;20510;-59
2020/12/23 05:06:20;;;;;;;13.32;4.43;;;1.80;99.90;;;;;;5049881;28;20020;-61
2020/12/23 05:08:46;;;;;;;4.80;4.20;;;1.80;99.90;;;;;;5050111;28;20434;-62
2020/12/23 05:11:12;;;;;;;5.30;4.45;;;1.80;99.90;;;;;;5050801;28;20021;-62
2020/12/23 05:13:38;;;;;;;5.25;4.60;;;1.90;99.90;;;;;;5050205;28;20041;-62
2020/12/23 05:16:09;;;;;;;5.93;4.70;;;1.90;99.90;;;;;;5050880;28;20017;-64
2020/12/23 05:18:37;;;;;;;5.63;4.57;;;1.90;99.90;;;;;;5050063;28;20029;-66
2020/12/23 05:21:14;;;;;;;5.60;4.47;;;1.90;99.90;;;;;;5051072;28;20036;-61
2020/12/23 05:23:46;;;;;;;11.45;4.88;;;1.90;99.90;;;;;;5049916;28;20025;-62
2020/12/23 05:26:13;;;;;;;5.65;4.80;;;1.90;99.90;;;;;;5049339;28;20036;-63
2020/12/23 05:28:40;;;;;;;4.95;4.18;;;1.90;99.90;;;;;;5050849;28;20017;-62
2020/12/23 05:31:10;;;;;;;6.10;4.85;;;1.90;99.90;;;;;;5050470;28;20426;-60
2020/12/23 05:33:39;;;;;;;21.40;5.80;;;1.90;99.90;;;;;;5048955;28;20025;-61
2020/12/23 05:36:10;;;;;;;6.32;4.35;;;1.90;99.90;;;;;;5050476;28;20155;-63
2020/12/23 05:38:36;;;;;;;6.93;4.60;;;1.90;99.90;;;;;;5048406;28;20025;-60
2020/12/23 05:41:05;;;;;;;6.53;4.72;;;1.90;99.90;;;;;;5050503;28;20029;-62
2020/12/23 05:43:31;;;;;;;4.80;4.13;;;1.90;99.90;;;;;;5050249;28;20024;-62
2020/12/23 05:45:58;;;;;;;8.15;5.28;;;1.90;99.90;;;;;;5050217;28;20025;-63
2020/12/23 05:48:24;;;;;;;6.55;5.05;;;1.80;99.90;;;;;;5050349;28;20056;-63
2020/12/23 05:50:50;;;;;;;5.18;4.47;;;1.80;99.90;;;;;;5050408;28;20482;-59
2020/12/23 05:53:16;;;;;;;6.75;4.88;;;1.80;99.90;;;;;;5050220;28;20021;-62
2020/12/23 05:55:49;;;;;;;5.57;4.78;;;1.80;99.90;;;;;;5050160;28;20099;-62
2020/12/23 05:58:32;;;;;;;6.07;5.30;;;1.80;99.90;;;;;;5047633;28;20021;-60
2020/12/23 06:00:59;;;;;;;5.75;5.13;;;1.70;99.90;;;;;;5047662;28;20028;-63
2020/12/23 06:03:50;;;;;;;8.82;5.97;;;1.70;99.90;;;;;;5050001;28;20668;-61
2020/12/23 06:06:27;;;;;;;6.78;4.80;;;1.70;99.90;;;;;;5046619;28;20017;-62
2020/12/23 06:08:59;;;;;;;20.27;6.60;;;1.70;99.90;;;;;;5047348;28;20013;-62
2020/12/23 06:11:41;;;;;;;7.35;5.68;;;1.70;99.90;;;;;;5050599;28;20017;-61
2020/12/23 06:14:14;;;;;;;7.60;6.43;;;1.80;99.90;;;;;;5049298;28;20036;-61
2020/12/23 06:16:47;;;;;;;13.50;6.90;;;1.70;99.90;;;;;;5046414;28;20021;-63
2020/12/23 06:19:36;;;;;;;7.38;5.47;;;1.80;99.90;;;;;;5047230;28;20025;-62
2020/12/23 06:22:09;;;;;;;15.85;6.45;;;1.70;99.90;;;;;;5049941;28;20021;-63
2020/12/23 06:24:38;;;;;;;12.13;6.57;;;1.80;99.90;;;;;;5047354;28;20032;-60
2020/12/23 06:27:05;;;;;;;8.65;6.25;;;1.70;99.90;;;;;;5049581;28;20044;-60
2020/12/23 06:29:33;;;;;;;10.25;6.32;;;1.70;99.90;;;;;;5049503;28;20016;-61
2020/12/23 06:32:00;;;;;;;7.97;6.45;;;1.70;99.90;;;;;;5049365;28;20474;-62
2020/12/23 06:34:28;;;;;;;12.52;6.60;;;1.70;99.90;;;;;;5049409;28;20021;-61
2020/12/23 06:36:56;;;;;;;8.23;6.38;;;1.60;99.90;;;;;;5046455;28;20690;-61
2020/12/23 06:39:41;;;;;;;8.30;6.10;;;1.60;99.90;;;;;;5048921;28;20024;-59
2020/12/23 06:42:06;;;;;;;7.35;6.38;;;1.60;99.90;;;;;;5045485;28;20083;-65
2020/12/23 06:44:50;;;;;;;7.35;6.10;;;1.60;99.90;;;;;;5046746;28;20482;-63
2020/12/23 06:47:15;;;;;;;7.28;5.90;;;1.60;99.90;;;;;;5045553;28;20528;-61
2020/12/23 06:49:42;;;;;;;20.00;6.97;;;1.60;99.90;;;;;;5048114;28;20092;-65
2020/12/23 06:52:27;;;;;;;7.65;6.22;;;1.60;99.90;;;;;;5046526;28;20045;-63
2020/12/23 06:54:55;;;;;;;7.47;5.57;;;1.60;99.90;;;;;;5046464;28;20375;-62
2020/12/23 06:57:36;;;;;;;9.75;7.13;;;1.60;99.90;;;;;;5049099;28;20407;-62
2020/12/23 07:00:06;;;;;;;8.90;6.18;;;1.60;99.90;;;;;;5048678;28;20032;-62
2020/12/23 07:02:33;;;;;;;8.95;6.40;;;1.60;99.90;;;;;;5043956;28;20071;-62
2020/12/23 07:04:59;;;;;;;13.32;6.97;;;1.60;99.90;;;;;;5049280;28;20051;-62
2020/12/23 07:07:43;;;;;;;8.38;6.65;;;1.70;99.90;;;;;;5041453;28;20024;-62
2020/12/23 07:10:20;;;;;;;9.25;6.78;;;1.60;99.90;;;;;;5039975;28;20021;-62
2020/12/23 07:12:58;;;;;;;11.10;6.43;;;1.70;99.90;;;;;;5048091;28;20086;-63
2020/12/23 07:15:25;;;;;;;24.58;5.85;;;1.70;99.90;;;;;;5049134;28;20029;-62
2020/12/23 07:17:52;;;;;;;7.10;5.10;;;1.70;99.90;;;;;;5049086;28;20068;-62
2020/12/23 07:20:21;;;;;;;10.75;6.00;;;1.70;99.90;;;;;;5031110;28;20475;-62
2020/12/23 07:22:51;;;;;;;8.93;5.95;;;1.60;99.90;;;;;;5035690;28;20120;-63
2020/12/23 07:25:24;;;;;;;7.18;5.10;;;1.70;99.90;;;;;;5048912;28;20024;-62
2020/12/23 07:28:00;;;;;;;7.80;6.15;;;1.70;99.90;;;;;;5048821;28;20399;-62
2020/12/23 07:30:26;;;;;;;7.15;5.28;;;1.70;99.90;;;;;;5049092;28;20025;-61
2020/12/23 07:33:07;;;;;;;8.15;5.22;;;1.70;99.90;;;;;;5031015;28;20032;-61
2020/12/23 07:35:34;;;;;;;7.25;5.30;;;1.70;99.90;;;;;;5048988;28;20020;-61
2020/12/23 07:38:02;;;;;;;8.05;4.80;;;1.60;99.90;;;;;;5048716;28;20017;-62
2020/12/23 07:40:28;;;;;;;8.60;5.53;;;1.60;99.90;;;;;;5048652;28;20509;-63
2020/12/23 07:42:56;;;;;;;9.95;5.43;;;1.60;99.90;;;;;;5048575;28;20052;-62
2020/12/23 07:45:22;;;;;;;7.22;5.32;;;1.60;99.90;;;;;;5048253;28;20020;-62
2020/12/23 07:48:03;;;;;;;9.63;6.50;;;1.60;99.90;;;;;;5048815;28;20104;-62
2020/12/23 07:50:32;;;;;;;6.93;5.25;;;1.60;99.90;;;;;;5048519;28;20027;-61
2020/12/23 07:53:10;;;;;;;8.00;5.57;;;1.60;99.90;;;;;;5048378;28;20029;-62
2020/12/23 07:55:36;;;;;;;8.25;6.40;;;1.60;99.90;;;;;;5048035;28;20029;-62
2020/12/23 07:58:01;;;;;;;6.60;5.47;;;1.60;99.90;;;;;;5048071;28;20021;-63
2020/12/23 08:00:28;;;;;;;7.68;5.90;;;1.60;99.90;;;;;;5047954;28;20025;-62
2020/12/23 08:02:54;;;;;;;7.22;5.55;;;1.70;99.90;;;;;;5046114;28;20021;-63
2020/12/23 08:05:19;;;;;;;9.52;6.18;;;1.70;99.90;;;;;;5047537;28;20036;-62
2020/12/23 08:07:45;;;;;;;11.73;6.50;;;1.70;99.90;;;;;;5035968;28;20021;-62
2020/12/23 08:10:19;;;;;;;7.97;6.05;;;1.60;99.90;;;;;;5037688;28;20031;-61
2020/12/23 08:12:55;;;;;;;12.40;6.75;;;1.60;99.90;;;;;;5046460;28;20024;-61
2020/12/23 08:15:21;;;;;;;9.57;6.63;;;1.60;99.90;;;;;;5046161;28;20029;-62
2020/12/23 08:17:47;;;;;;;8.20;5.93;;;1.60;99.90;;;;;;5046508;28;20032;-62
2020/12/23 08:20:14;;;;;;;9.60;6.28;;;1.60;99.90;;;;;;5080614;22;20059;-47
2020/12/23 08:22:42;;;;;;;17.15;6.45;;;1.60;99.90;;;;;;5066745;28;20116;-44
2020/12/23 08:25:26;;;;;;;10.77;7.10;;;1.60;99.90;;;;;;5058209;28;20024;-46
2020/12/23 08:27:56;;;;;;;8.15;5.80;;;1.70;99.90;;;;;;5064566;28;20052;-47
2020/12/23 08:30:24;;;;;;;8.48;4.93;;;1.70;99.90;;;;;;5049345;28;20124;-49
2020/12/23 08:33:12;;;;;;;8.50;5.35;;;1.70;99.90;;;;;;5059039;28;20028;-45
2020/12/23 08:35:44;;;;;;;8.68;5.80;;;1.70;99.90;;;;;;5062533;28;20036;-45
2020/12/23 08:38:21;;;;;;;7.63;5.25;;;1.70;99.90;;;;;;5067727;28;20047;-49
2020/12/23 08:40:55;;;;;;;15.63;6.00;;;1.70;99.90;;;;;;5067648;28;20029;-45
2020/12/23 08:43:23;;;;;;;8.60;6.40;;;1.70;99.90;;;;;;5067235;28;20462;-44
2020/12/23 08:45:49;;;;;;;8.65;5.88;;;1.70;99.90;;;;;;5067643;28;20494;-46
2020/12/23 08:48:22;;;;;;;8.45;5.85;;;1.70;99.90;;;;;;5067680;28;20367;-44
2020/12/23 08:51:03;;;;;;;9.77;5.43;;;1.70;99.90;;;;;;5067611;28;20082;-46
2020/12/23 08:53:35;;;;;;;12.15;6.38;;;1.70;99.90;;;;;;5067793;28;20096;-45
2020/12/23 08:56:27;;;;;;;9.98;6.32;;;1.70;99.90;;;;;;5067489;28;20491;-45
2020/12/23 08:59:05;;;;;;;8.70;5.15;;;1.70;99.90;;;;;;5067001;28;20489;-44
2020/12/23 09:01:32;;;;;;;7.78;5.25;;;1.70;99.90;;;;;;5067323;28;20016;-47
2020/12/23 09:03:58;;;;;;;6.13;5.13;;;1.60;99.90;;;;;;5066805;28;20024;-47
2020/12/23 09:06:23;;;;;;;9.68;5.50;;;1.70;99.90;;;;;;5064708;28;20084;-46
2020/12/23 09:08:49;;;;;;;8.20;5.60;;;1.70;99.90;;;;;;5059763;28;20100;-48
2020/12/23 09:11:14;;;;;;;7.60;5.07;;;1.70;99.90;;;;;;5064482;28;20028;-47
2020/12/23 09:13:40;;;;;;;7.55;4.47;;;1.70;99.90;;;;;;5061359;28;20438;-49
2020/12/23 09:16:05;;;;;;;7.40;5.47;;;1.70;99.90;;;;;;5060968;28;20033;-45
2020/12/23 09:18:31;;;;;;;7.65;5.15;;;1.70;99.90;;;;;;5064689;28;20039;-46
2020/12/23 09:21:01;;;;;;;9.60;5.75;;;1.70;99.90;;;;;;5063563;28;20119;-44
2020/12/23 09:23:27;;;;;;;7.80;6.00;;;1.70;99.90;;;;;;5067174;28;20375;-48
2020/12/23 09:25:54;;;;;;;9.15;6.13;;;1.70;99.90;;;;;;5065645;28;20071;-47
2020/12/23 09:28:20;;;;;;;7.18;5.15;;;1.70;99.90;;;;;;5060867;28;20024;-44
2020/12/23 09:30:48;;;;;;;7.68;5.85;;;1.80;99.90;;;;;;5067049;28;20029;-44
2020/12/23 09:33:22;;;;;;;13.75;6.90;;;1.80;99.90;;;;;;5067492;28;20021;-45
2020/12/23 09:36:03;;;;;;;9.98;6.05;;;1.80;99.90;;;;;;5059592;28;20498;-45
2020/12/23 09:38:34;;;;;;;11.32;5.93;;;1.90;99.90;;;;;;5070722;28;20016;-46
2020/12/23 09:41:07;;;;;;;9.60;6.65;;;1.90;99.90;;;;;;5071244;28;20017;-46
2020/12/23 09:43:37;;;;;;;12.73;6.70;;;1.90;99.90;;;;;;5070313;28;20076;-45
2020/12/23 09:46:05;;;;;;;10.48;6.45;;;1.90;99.90;;;;;;5070606;28;20033;-49
2020/12/23 09:48:32;;;;;;;9.63;6.68;;;2.00;99.90;;;;;;5070403;28;20535;-48
2020/12/23 09:50:58;;;;;;;11.20;6.32;;;1.90;99.90;;;;;;5070599;28;20028;-50
2020/12/23 09:53:25;;;;;;;14.93;7.20;;;2.00;99.90;;;;;;5069051;28;20617;-46
2020/12/23 09:55:52;;;;;;;22.05;7.47;;;2.00;99.90;;;;;;5070334;28;20082;-45
2020/12/23 09:58:18;;;;;;;18.65;6.85;;;2.10;99.90;;;;;;5052365;28;20021;-48
2020/12/23 10:00:46;;;;;;;11.55;7.20;;;2.00;99.90;;;;;;5070065;28;20033;-46
2020/12/23 10:03:12;;;;;;;10.10;6.82;;;2.10;99.90;;;;;;5070680;28;20432;-46
2020/12/23 10:05:38;;;;;;;12.38;7.45;;;2.10;99.90;;;;;;5069743;28;20025;-48
2020/12/23 10:08:06;;;;;;;10.63;6.57;;;2.10;99.90;;;;;;5058771;28;20482;-48
2020/12/23 10:10:32;;;;;;;20.67;7.50;;;2.20;99.90;;;;;;5051944;28;20023;-45
2020/12/23 10:12:57;;;;;;;13.63;8.73;;;2.20;99.90;;;;;;5069775;28;20028;-48
2020/12/23 10:15:23;;;;;;;12.38;7.82;;;2.20;99.90;;;;;;5069939;28;20582;-47
2020/12/23 10:17:49;;;;;;;10.50;7.20;;;2.30;99.90;;;;;;5069873;28;20078;-48
2020/12/23 10:20:14;;;;;;;8.80;6.60;;;2.30;99.90;;;;;;5069913;28;20033;-46
2020/12/23 10:22:40;;;;;;;12.10;8.05;;;2.30;99.90;;;;;;5051597;28;20418;-50
2020/12/23 10:25:08;;;;;;;8.70;7.22;;;2.30;99.90;;;;;;5067884;28;20028;-46
2020/12/23 10:27:33;;;;;;;9.65;6.20;;;2.30;99.90;;;;;;5069860;28;20027;-48
2020/12/23 10:30:00;;;;;;;9.40;6.88;;;2.40;99.90;;;;;;5069241;28;20025;-49
2020/12/23 10:32:29;;;;;;;10.48;7.28;;;2.40;99.90;;;;;;5069728;28;20036;-48
2020/12/23 10:34:54;;;;;;;10.27;7.07;;;2.40;99.90;;;;;;5069376;28;20028;-44
2020/12/23 10:37:20;;;;;;;10.02;7.05;;;2.50;99.90;;;;;;5069969;28;20025;-50
2020/12/23 10:39:46;;;;;;;10.52;6.80;;;2.50;99.90;;;;;;5069923;28;20040;-50
2020/12/23 10:42:12;;;;;;;10.85;7.32;;;2.60;99.90;;;;;;5070005;28;20499;-47
2020/12/23 10:44:38;;;;;;;8.30;5.97;;;2.60;99.90;;;;;;5069760;28;20024;-47
2020/12/23 10:47:04;;;;;;;11.63;7.10;;;2.60;99.90;;;;;;5068730;28;20020;-47
2020/12/23 10:49:29;;;;;;;10.30;7.03;;;2.70;99.90;;;;;;5069969;28;20035;-46
2020/12/23 10:51:57;;;;;;;11.23;6.30;;;2.70;99.90;;;;;;5068303;28;20039;-46
2020/12/23 10:54:31;;;;;;;10.57;7.55;;;2.80;99.90;;;;;;5060044;28;20055;-46
2020/12/23 10:56:57;;;;;;;10.98;7.78;;;2.80;99.90;;;;;;5069167;28;20451;-46
2020/12/23 10:59:23;;;;;;;13.15;7.88;;;2.80;99.90;;;;;;5069451;28;20012;-45
2020/12/23 11:01:53;;;;;;;10.10;7.75;;;2.90;99.90;;;;;;5051551;28;20052;-46
2020/12/23 11:04:18;;;;;;;11.93;8.25;;;2.90;99.90;;;;;;5069326;28;20103;-47
2020/12/23 11:06:47;;;;;;;12.15;8.50;;;2.90;99.90;;;;;;5065869;28;20053;-48
2020/12/23 11:09:13;;;;;;;9.68;7.65;;;3.00;99.90;;;;;;5053483;28;20033;-49
2020/12/23 11:11:38;;;;;;;11.48;8.23;;;3.00;99.90;;;;;;5069817;28;20040;-46
2020/12/23 11:14:04;;;;;;;11.77;7.68;;;3.10;99.90;;;;;;5069594;28;20033;-47
2020/12/23 11:16:30;;;;;;;13.27;7.90;;;3.10;99.90;;;;;;5078937;28;20394;-44
2020/12/23 11:18:56;;;;;;;12.75;7.95;;;3.20;99.90;;;;;;5069021;28;20030;-44
2020/12/23 11:21:21;;;;;;;12.55;7.72;;;3.20;99.90;;;;;;5069666;28;20112;-48
2020/12/23 11:23:47;;;;;;;12.68;7.75;;;3.30;99.90;;;;;;5069798;28;20450;-45
2020/12/23 11:26:22;;;;;;;9.88;6.78;;;3.30;99.90;;;;;;5066907;28;20119;-48
2020/12/23 11:28:48;;;;;;;12.80;7.65;;;3.40;99.90;;;;;;5062352;28;20024;-49
2020/12/23 11:31:15;;;;;;;15.20;7.78;;;3.40;99.90;;;;;;5067531;28;20025;-46
2020/12/23 11:33:41;;;;;;;12.23;7.78;;;3.40;99.90;;;;;;5066725;28;20043;-48
2020/12/23 11:36:07;;;;;;;13.18;8.55;;;3.40;99.90;;;;;;5067701;28;20025;-46
2020/12/23 11:38:32;;;;;;;14.13;8.63;;;3.50;99.90;;;;;;5049658;28;20033;-47
2020/12/23 11:40:58;;;;;;;12.75;7.63;;;3.50;99.90;;;;;;5068252;28;20028;-45
2020/12/23 11:43:23;;;;;;;13.55;8.52;;;3.50;99.90;;;;;;5068907;28;20047;-48
2020/12/23 11:45:49;;;;;;;13.68;8.65;;;3.60;99.90;;;;;;5068700;28;20024;-49
2020/12/23 11:48:15;;;;;;;15.43;9.32;;;3.60;99.90;;;;;;5068711;28;20521;-48
2020/12/23 11:50:40;;;;;;;15.30;8.82;;;3.60;99.90;;;;;;5068513;28;20025;-46
2020/12/23 11:53:06;;;;;;;15.50;8.45;;;3.70;99.90;;;;;;5067202;28;20025;-45
2020/12/23 11:55:31;;;;;;;12.13;8.55;;;3.70;99.90;;;;;;5065946;28;20916;-48
2020/12/23 11:57:58;;;;;;;13.48;8.68;;;3.70;99.90;;;;;;5067972;28;20032;-49
2020/12/23 12:00:23;;;;;;;14.25;9.00;;;3.70;99.90;;;;;;5065017;28;20053;-47
2020/12/23 12:02:49;;;;;;;14.43;7.85;;;3.70;99.90;;;;;;5063374;28;20055;-45
2020/12/23 12:05:14;;;;;;;12.98;8.07;;;3.70;99.90;;;;;;5067762;28;20020;-48
2020/12/23 12:07:40;;;;;;;16.02;9.02;;;3.70;99.90;;;;;;5067167;28;20029;-48
2020/12/23 12:10:07;;;;;;;10.23;7.93;;;3.70;99.90;;;;;;5067861;28;20032;-47
2020/12/23 12:12:34;;;;;;;11.40;7.25;;;3.80;99.90;;;;;;5063409;28;20394;-45
2020/12/23 12:14:59;;;;;;;11.45;8.18;;;3.80;99.90;;;;;;5065580;28;20036;-48
2020/12/23 12:17:25;;;;;;;10.90;7.50;;;3.90;99.90;;;;;;5067125;28;20016;-45
2020/12/23 12:19:51;;;;;;;10.05;7.28;;;3.90;99.90;;;;;;5066172;28;20038;-49
2020/12/23 12:22:17;;;;;;;14.30;8.38;;;4.00;99.90;;;;;;5049198;28;20448;-45
2020/12/23 12:24:42;;;;;;;12.13;8.80;;;4.00;99.90;;;;;;5065653;28;20656;-48
2020/12/23 12:27:08;;;;;;;14.75;8.75;;;4.10;99.90;;;;;;5065381;28;20033;-48
2020/12/23 12:29:34;;;;;;;12.63;7.65;;;4.10;99.90;;;;;;5063445;28;20024;-46
2020/12/23 12:31:59;;;;;;;13.75;8.38;;;4.10;99.90;;;;;;5065775;28;20036;-46
2020/12/23 12:34:27;;;;;;;14.85;8.82;;;4.10;99.90;;;;;;5066483;28;20016;-47
2020/12/23 12:36:53;;;;;;;12.20;7.50;;;4.10;99.90;;;;;;5066837;28;20030;-47
2020/12/23 12:39:19;;;;;;;12.18;7.68;;;4.10;99.90;;;;;;5034097;28;20661;-48
2020/12/23 12:41:44;;;;;;;11.30;7.95;;;4.20;99.90;;;;;;5064240;28;20021;-49
2020/12/23 12:44:10;;;;;;;15.02;8.25;;;4.20;99.90;;;;;;5037511;28;20479;-47
2020/12/23 12:46:36;;;;;;;12.20;7.72;;;4.20;99.90;;;;;;5063503;28;20021;-48
2020/12/23 12:49:01;;;;;;;11.07;8.43;;;4.20;99.90;;;;;;5066005;28;20079;-46
2020/12/23 12:51:28;;;;;;;12.10;8.23;;;4.30;99.90;;;;;;5067406;28;20039;-45
2020/12/23 12:53:53;;;;;;;12.35;7.63;;;4.30;99.90;;;;;;5067536;28;20031;-48
2020/12/23 12:56:24;;;;;;;14.20;8.43;;;4.30;99.90;;;;;;5067350;28;20016;-48
2020/12/23 12:58:49;;;;;;;14.52;9.27;;;4.30;99.90;;;;;;5065881;28;20050;-49